createdAt,value
2017-07-08T00:01:30.502Z,22.33
2017-07-08T00:03:58.878Z,22.70
2017-07-08T00:06:27.212Z,21.80
2017-07-08T00:08:55.536Z,21.27
2017-07-08T00:11:24.184Z,22.00
2017-07-08T00:13:52.547Z,22.73
2017-07-08T00:16:20.903Z,23.60
2017-07-08T00:18:49.850Z,21.03
2017-07-08T00:21:18.399Z,21.77
2017-07-08T00:23:46.876Z,22.40
2017-07-08T00:26:16.493Z,22.77
2017-07-08T00:28:45.121Z,21.57
2017-07-08T00:31:13.519Z,21.03
2017-07-08T00:33:42.106Z,22.97
2017-07-08T00:36:11.582Z,22.60
2017-07-08T00:38:39.978Z,23.67
2017-07-08T00:41:08.503Z,23.80
2017-07-08T00:43:36.858Z,22.50
2017-07-08T00:46:05.232Z,23.40
2017-07-08T00:48:33.856Z,23.37
2017-07-08T00:51:02.184Z,22.97
2017-07-08T00:53:30.560Z,22.20
2017-07-08T00:55:59.227Z,21.17
2017-07-08T00:58:27.570Z,24.47
2017-07-08T01:00:55.885Z,23.93
2017-07-08T01:03:24.811Z,23.33
2017-07-08T01:05:53.249Z,24.33
2017-07-08T01:08:22.548Z,26.57
2017-07-08T01:10:51.163Z,25.23
2017-07-08T01:13:19.531Z,24.83
2017-07-08T01:15:47.887Z,24.53
2017-07-08T01:18:16.549Z,25.93
2017-07-08T01:20:45.047Z,24.60
2017-07-08T01:23:13.456Z,27.23
2017-07-08T01:25:42.235Z,27.43
2017-07-08T01:28:10.568Z,23.63
2017-07-08T01:30:38.939Z,24.90
2017-07-08T01:33:07.480Z,25.93
2017-07-08T01:35:35.804Z,25.73
2017-07-08T01:38:04.159Z,25.53
2017-07-08T01:40:32.697Z,24.60
2017-07-08T01:43:01.045Z,25.47
2017-07-08T01:45:29.351Z,25.27
2017-07-08T01:47:57.807Z,25.80
2017-07-08T01:50:26.181Z,24.17
2017-07-08T01:52:54.508Z,28.90
2017-07-08T01:55:23.024Z,25.60
2017-07-08T01:57:51.348Z,27.47
2017-07-08T02:00:19.701Z,28.10
2017-07-08T02:02:48.339Z,26.03
2017-07-08T02:05:16.821Z,26.10
2017-07-08T02:07:47.462Z,27.03
2017-07-08T02:10:16.122Z,25.83
2017-07-08T02:12:44.494Z,22.67
2017-07-08T02:15:14.949Z,24.93
2017-07-08T02:17:43.557Z,25.10
2017-07-08T02:20:11.937Z,24.20
2017-07-08T02:22:40.386Z,25.03
2017-07-08T02:25:09.187Z,25.37
2017-07-08T02:27:37.545Z,25.50
2017-07-08T02:30:05.950Z,26.93
2017-07-08T02:32:34.867Z,25.50
2017-07-08T02:35:03.193Z,26.70
2017-07-08T02:37:31.518Z,27.60
2017-07-08T02:40:00.809Z,27.57
2017-07-08T02:42:29.169Z,26.87
2017-07-08T02:44:57.503Z,28.93
2017-07-08T02:47:27.118Z,29.33
2017-07-08T02:49:55.495Z,28.27
2017-07-08T02:52:23.849Z,28.80
2017-07-08T02:54:52.382Z,26.20
2017-07-08T02:57:20.768Z,24.80
2017-07-08T02:59:49.150Z,25.00
2017-07-08T03:02:17.689Z,28.30
2017-07-08T03:04:46.366Z,26.43
2017-07-08T03:10:08.432Z,26.57
2017-07-08T03:12:36.777Z,27.70
2017-07-08T03:15:05.127Z,27.43
2017-07-08T03:17:33.775Z,25.10
2017-07-08T03:20:02.115Z,26.30
2017-07-08T03:22:30.443Z,24.90
2017-07-08T03:24:59.831Z,24.07
2017-07-08T03:27:28.171Z,25.53
2017-07-08T03:29:56.522Z,27.83
2017-07-08T03:32:25.108Z,26.57
2017-07-08T03:34:53.480Z,25.80
2017-07-08T03:37:21.829Z,26.83
2017-07-08T03:39:50.514Z,25.40
2017-07-08T03:42:18.892Z,25.77
2017-07-08T03:44:47.258Z,24.27
2017-07-08T03:47:15.909Z,26.00
2017-07-08T03:49:44.275Z,25.90
2017-07-08T03:52:12.616Z,24.77
2017-07-08T03:54:41.767Z,24.17
2017-07-08T03:57:10.217Z,23.20
2017-07-08T03:59:38.626Z,22.27
2017-07-08T04:02:07.519Z,21.23
2017-07-08T04:04:35.873Z,23.70
2017-07-08T04:07:04.215Z,24.10
2017-07-08T04:09:33.328Z,20.80
2017-07-08T04:12:02.081Z,23.17
2017-07-08T04:14:30.398Z,20.00
2017-07-08T04:16:59.060Z,21.30
2017-07-08T04:19:27.494Z,24.30
2017-07-08T04:21:55.828Z,23.47
2017-07-08T04:24:25.176Z,22.00
2017-07-08T04:26:53.547Z,22.73
2017-07-08T04:29:21.867Z,22.03
2017-07-08T04:31:51.311Z,21.57
2017-07-08T04:34:19.636Z,19.63
2017-07-08T04:36:48.988Z,22.60
2017-07-08T04:39:17.492Z,20.90
2017-07-08T04:41:45.847Z,20.60
2017-07-08T04:44:14.457Z,19.53
2017-07-08T04:46:42.863Z,21.10
2017-07-08T04:49:11.314Z,19.77
2017-07-08T04:51:39.725Z,19.50
2017-07-08T04:54:08.446Z,19.50
2017-07-08T04:56:36.764Z,18.37
2017-07-08T04:59:11.587Z,18.80
2017-07-08T05:01:40.132Z,18.13
2017-07-08T05:04:08.456Z,19.80
2017-07-08T05:06:37.058Z,20.60
2017-07-08T05:09:05.397Z,18.57
2017-07-08T05:11:33.761Z,20.00
2017-07-08T05:14:02.357Z,19.47
2017-07-08T05:16:30.693Z,18.93
2017-07-08T05:18:59.023Z,18.47
2017-07-08T05:21:28.130Z,19.83
2017-07-08T05:23:56.503Z,18.70
2017-07-08T05:26:24.877Z,19.10
2017-07-08T05:28:54.705Z,17.83
2017-07-08T05:31:23.945Z,20.50
2017-07-08T05:33:52.318Z,20.20
2017-07-08T05:36:20.875Z,20.47
2017-07-08T05:38:49.296Z,18.40
2017-07-08T05:41:17.779Z,17.97
2017-07-08T05:43:46.307Z,18.43
2017-07-08T05:46:14.793Z,19.00
2017-07-08T05:48:43.320Z,17.93
2017-07-08T05:51:12.071Z,18.50
2017-07-08T05:53:40.450Z,18.50
2017-07-08T05:56:09.848Z,19.10
2017-07-08T05:58:38.482Z,20.23
2017-07-08T06:01:06.878Z,19.53
2017-07-08T06:03:35.196Z,18.20
2017-07-08T06:06:03.775Z,18.20
2017-07-08T06:08:32.127Z,17.00
2017-07-08T06:11:00.467Z,17.23
2017-07-08T06:13:28.942Z,14.03
2017-07-08T06:15:58.066Z,14.80
2017-07-08T06:18:26.403Z,12.77
2017-07-08T06:20:55.069Z,12.97
2017-07-08T06:23:23.374Z,12.77
2017-07-08T06:25:51.798Z,11.13
2017-07-08T06:28:20.506Z,10.63
2017-07-08T06:30:51.035Z,8.90
2017-07-08T06:33:20.454Z,10.10
2017-07-08T06:35:50.255Z,8.07
2017-07-08T06:38:18.711Z,9.23
2017-07-08T06:40:47.108Z,8.83
2017-07-08T06:43:15.767Z,10.20
2017-07-08T06:45:44.208Z,9.70
2017-07-08T06:48:12.585Z,7.97
2017-07-08T06:50:41.375Z,7.13
2017-07-08T06:53:09.797Z,8.00
2017-07-08T06:55:38.167Z,9.67
2017-07-08T06:58:06.766Z,6.40
2017-07-08T07:00:35.143Z,7.53
2017-07-08T07:03:03.500Z,6.57
2017-07-08T07:05:32.166Z,6.70
2017-07-08T07:08:00.568Z,5.80
2017-07-08T07:10:30.079Z,5.70
2017-07-08T07:12:58.749Z,5.30
2017-07-08T07:15:27.168Z,4.07
2017-07-08T07:17:56.433Z,4.00
2017-07-08T07:20:26.352Z,4.53
2017-07-08T07:22:55.639Z,4.60
2017-07-08T07:25:23.980Z,4.10
2017-07-08T07:27:52.489Z,3.93
2017-07-08T07:30:20.839Z,3.30
2017-07-08T07:32:49.321Z,5.10
2017-07-08T07:35:18.420Z,3.70
2017-07-08T07:37:46.762Z,4.17
2017-07-08T07:40:15.086Z,3.90
2017-07-08T07:42:43.465Z,3.33
2017-07-08T07:45:11.900Z,3.93
2017-07-08T07:47:40.341Z,2.50
2017-07-08T07:50:09.458Z,2.80
2017-07-08T07:52:39.817Z,3.33
2017-07-08T07:55:08.189Z,3.30
2017-07-08T07:57:36.655Z,3.60
2017-07-08T08:00:04.978Z,3.77
2017-07-08T08:02:33.647Z,3.27
2017-07-08T08:05:02.052Z,3.60
2017-07-08T08:07:30.453Z,3.40
2017-07-08T08:09:58.835Z,2.80
2017-07-08T08:12:27.577Z,2.90
2017-07-08T08:14:55.951Z,2.97
2017-07-08T08:17:24.257Z,2.60
2017-07-08T08:19:52.866Z,1.83
2017-07-08T08:22:21.245Z,2.03
2017-07-08T08:24:49.581Z,2.70
2017-07-08T08:27:20.490Z,2.50
2017-07-08T08:29:48.861Z,2.37
2017-07-08T08:32:17.247Z,2.27
2017-07-08T08:34:46.414Z,2.60
2017-07-08T08:37:14.832Z,2.53
2017-07-08T08:39:43.224Z,2.70
2017-07-08T08:42:11.863Z,2.90
2017-07-08T08:44:40.233Z,2.83
2017-07-08T08:47:08.745Z,3.10
2017-07-08T08:49:37.689Z,2.63
2017-07-08T08:52:11.411Z,3.30
2017-07-08T08:54:40.056Z,2.70
2017-07-08T08:57:08.397Z,3.03
2017-07-08T08:59:36.772Z,2.97
2017-07-08T09:02:05.151Z,3.23
2017-07-08T09:04:33.501Z,4.30
2017-07-08T09:07:02.864Z,4.20
2017-07-08T09:09:31.789Z,4.07
2017-07-08T09:12:00.126Z,4.43
2017-07-08T09:14:29.400Z,3.90
2017-07-08T09:16:57.914Z,4.43
2017-07-08T09:19:26.249Z,4.53
2017-07-08T09:21:56.650Z,5.13
2017-07-08T09:24:25.344Z,5.90
2017-07-08T09:26:53.733Z,4.97
2017-07-08T09:29:22.052Z,4.97
2017-07-08T09:31:51.023Z,4.60
2017-07-08T09:34:19.353Z,6.33
2017-07-08T09:36:49.781Z,5.80
2017-07-08T09:39:18.566Z,5.50
2017-07-08T09:41:46.932Z,4.80
2017-07-08T09:44:15.372Z,4.17
2017-07-08T09:46:43.854Z,4.70
2017-07-08T09:49:12.282Z,4.93
2017-07-08T09:51:40.685Z,5.00
2017-07-08T09:54:10.622Z,4.10
2017-07-08T09:56:39.039Z,4.40
2017-07-08T09:59:09.393Z,4.40
2017-07-08T10:01:38.703Z,4.47
2017-07-08T10:04:07.055Z,4.30
2017-07-08T10:06:35.361Z,3.50
2017-07-08T10:09:04.484Z,3.03
2017-07-08T10:11:32.868Z,3.30
2017-07-08T10:14:01.929Z,3.40
2017-07-08T10:16:30.434Z,4.20
2017-07-08T10:18:58.814Z,3.17
2017-07-08T10:21:27.178Z,2.90
2017-07-08T10:23:58.009Z,3.70
2017-07-08T10:26:26.382Z,3.00
2017-07-08T10:28:54.836Z,3.47
2017-07-08T10:31:23.756Z,3.27
2017-07-08T10:33:52.205Z,2.67
2017-07-08T10:36:20.578Z,3.40
2017-07-08T10:38:49.212Z,3.17
2017-07-08T10:41:18.484Z,3.17
2017-07-08T10:43:46.845Z,3.97
2017-07-08T10:46:15.587Z,3.77
2017-07-08T10:48:43.966Z,3.83
2017-07-08T10:51:12.512Z,3.00
2017-07-08T10:53:42.239Z,3.50
2017-07-08T10:56:10.785Z,4.43
2017-07-08T11:01:14.844Z,4.10
2017-07-08T11:03:43.622Z,3.10
2017-07-08T11:06:12.065Z,3.40
2017-07-08T11:08:40.771Z,3.40
2017-07-08T11:11:09.111Z,3.10
2017-07-08T11:13:37.596Z,2.40
2017-07-08T11:16:06.496Z,2.80
2017-07-08T11:18:34.951Z,2.50
2017-07-08T11:21:03.378Z,2.40
2017-07-08T11:23:32.498Z,2.87
2017-07-08T11:26:01.490Z,3.00
2017-07-08T11:28:29.940Z,2.07
2017-07-08T11:30:58.569Z,2.40
2017-07-08T11:33:26.962Z,2.43
2017-07-08T11:36:02.756Z,2.10
2017-07-08T11:38:31.141Z,3.00
2017-07-08T11:40:59.482Z,2.40
2017-07-08T11:43:28.344Z,1.93
2017-07-08T11:45:56.812Z,2.03
2017-07-08T11:48:25.211Z,1.73
2017-07-08T11:50:53.989Z,2.30
2017-07-08T11:53:22.439Z,1.63
2017-07-08T11:55:51.169Z,2.03
2017-07-08T11:58:20.516Z,2.00
2017-07-08T12:00:49.061Z,2.67
2017-07-08T12:03:18.434Z,2.53
2017-07-08T12:05:47.324Z,2.07
2017-07-08T12:08:15.701Z,2.00
2017-07-08T12:10:44.103Z,1.97
2017-07-08T12:13:12.868Z,2.37
2017-07-08T12:15:41.655Z,2.33
2017-07-08T12:18:10.017Z,2.73
2017-07-08T12:20:40.546Z,1.60
2017-07-08T12:23:08.929Z,2.00
2017-07-08T12:25:37.317Z,1.83
2017-07-08T12:28:06.341Z,1.70
2017-07-08T12:30:34.785Z,2.30
2017-07-08T12:33:04.104Z,1.87
2017-07-08T12:35:33.675Z,2.20
2017-07-08T12:38:02.034Z,1.80
2017-07-08T12:40:30.546Z,1.67
2017-07-08T12:42:59.238Z,2.00
2017-07-08T12:45:27.635Z,2.13
2017-07-08T12:47:55.969Z,1.60
2017-07-08T12:50:24.785Z,1.73
2017-07-08T12:52:53.135Z,1.60
2017-07-08T12:55:21.794Z,1.83
2017-07-08T12:57:50.486Z,1.70
2017-07-08T13:00:18.853Z,1.53
2017-07-08T13:02:47.267Z,1.70
2017-07-08T13:05:16.102Z,2.40
2017-07-08T13:07:44.691Z,2.37
2017-07-08T13:10:13.095Z,1.80
2017-07-08T13:12:41.894Z,2.43
2017-07-08T13:15:10.285Z,2.63
2017-07-08T13:17:38.634Z,1.97
2017-07-08T13:20:07.511Z,2.30
2017-07-08T13:22:35.823Z,2.50
2017-07-08T13:25:04.172Z,2.60
2017-07-08T13:27:34.466Z,2.17
2017-07-08T13:30:02.993Z,1.80
2017-07-08T13:32:31.351Z,2.07
2017-07-08T13:34:59.741Z,2.77
2017-07-08T13:37:28.134Z,1.70
2017-07-08T13:39:56.456Z,2.07
2017-07-08T13:42:25.260Z,1.90
2017-07-08T13:44:53.597Z,2.13
2017-07-08T13:47:21.940Z,1.80
2017-07-08T13:49:50.942Z,1.67
2017-07-08T13:52:20.333Z,2.43
2017-07-08T13:54:48.832Z,1.97
2017-07-08T13:57:18.161Z,2.03
2017-07-08T13:59:46.708Z,1.63
2017-07-08T14:02:16.697Z,1.83
2017-07-08T14:04:45.469Z,1.53
2017-07-08T14:07:14.003Z,1.43
2017-07-08T14:09:42.620Z,1.87
2017-07-08T14:12:11.462Z,1.93
2017-07-08T14:14:39.818Z,1.80
2017-07-08T14:17:08.173Z,2.13
2017-07-08T14:19:36.881Z,2.10
2017-07-08T14:22:06.421Z,1.40
2017-07-08T14:24:34.795Z,1.57
2017-07-08T14:27:04.035Z,1.87
2017-07-08T14:29:32.886Z,1.53
2017-07-08T14:32:01.546Z,1.60
2017-07-08T14:34:30.126Z,1.80
2017-07-08T14:36:58.473Z,1.40
2017-07-08T14:39:26.952Z,1.77
2017-07-08T14:41:55.844Z,1.43
2017-07-08T14:44:24.149Z,1.63
2017-07-08T14:46:52.554Z,1.93
2017-07-08T14:49:22.347Z,1.40
2017-07-08T14:51:50.869Z,1.53
2017-07-08T14:54:19.524Z,2.13
2017-07-08T14:56:49.039Z,1.60
2017-07-08T14:59:17.526Z,2.07
2017-07-08T15:01:45.901Z,2.37
2017-07-08T15:04:15.609Z,2.47
2017-07-08T15:06:43.966Z,2.50
2017-07-08T15:09:12.448Z,2.33
2017-07-08T15:11:41.274Z,2.47
2017-07-08T15:14:09.637Z,1.50
2017-07-08T15:16:38.006Z,2.17
2017-07-08T15:19:06.460Z,2.20
2017-07-08T15:21:34.974Z,1.90
2017-07-08T15:24:03.401Z,1.80
2017-07-08T15:26:31.818Z,2.07
2017-07-08T15:29:00.378Z,1.37
2017-07-08T15:31:28.706Z,1.87
2017-07-08T15:33:57.874Z,2.07
2017-07-08T15:36:26.275Z,1.53
2017-07-08T15:38:54.642Z,2.20
2017-07-08T15:41:23.604Z,2.10
2017-07-08T15:43:54.017Z,2.53
2017-07-08T15:46:22.857Z,2.13
2017-07-08T15:48:51.737Z,1.90
2017-07-08T15:51:20.488Z,2.20
2017-07-08T15:53:49.487Z,2.27
2017-07-08T15:56:17.960Z,1.50
2017-07-08T15:58:46.642Z,2.00
2017-07-08T16:01:15.295Z,2.20
2017-07-08T16:03:44.117Z,1.90
2017-07-08T16:06:12.854Z,2.20
2017-07-08T16:08:41.538Z,2.20
2017-07-08T16:11:13.345Z,2.00
2017-07-08T16:13:42.393Z,1.80
2017-07-08T16:16:11.734Z,2.77
2017-07-08T16:18:40.390Z,2.00
2017-07-08T16:21:09.007Z,2.00
2017-07-08T16:23:37.572Z,2.30
2017-07-08T16:26:06.218Z,2.50
2017-07-08T16:28:34.555Z,2.03
2017-07-08T16:31:02.916Z,2.40
2017-07-08T16:33:31.753Z,2.50
2017-07-08T16:36:00.958Z,2.03
2017-07-08T16:38:29.302Z,2.10
2017-07-08T16:40:57.793Z,2.13
2017-07-08T16:43:26.097Z,3.43
2017-07-08T16:45:54.500Z,1.70
2017-07-08T16:48:24.025Z,2.67
2017-07-08T16:50:52.387Z,2.40
2017-07-08T16:53:20.855Z,1.63
2017-07-08T16:55:49.655Z,2.10
2017-07-08T16:58:18.033Z,2.27
2017-07-08T17:00:46.585Z,2.47
2017-07-08T17:03:15.668Z,2.30
2017-07-08T17:05:44.424Z,1.80
2017-07-08T17:08:12.931Z,2.50
2017-07-08T17:10:41.890Z,3.03
2017-07-08T17:13:10.348Z,2.17
2017-07-08T17:15:38.697Z,2.50
2017-07-08T17:18:07.091Z,2.10
2017-07-08T17:20:35.392Z,2.47
2017-07-08T17:23:03.775Z,2.33
2017-07-08T17:25:32.426Z,2.30
2017-07-08T17:28:00.817Z,2.47
2017-07-08T17:30:29.159Z,1.70
2017-07-08T17:32:57.818Z,1.80
2017-07-08T17:35:27.130Z,2.17
2017-07-08T17:37:55.798Z,2.20
2017-07-08T17:40:24.648Z,1.73
2017-07-08T17:42:53.098Z,1.57
2017-07-08T17:45:21.468Z,3.67
2017-07-08T17:47:50.139Z,2.90
2017-07-08T17:50:18.566Z,1.50
2017-07-08T17:52:46.911Z,1.80
2017-07-08T17:55:15.680Z,2.30
2017-07-08T17:57:44.283Z,1.63
2017-07-08T18:00:12.763Z,2.17
2017-07-08T18:02:41.657Z,2.40
2017-07-08T18:05:12.025Z,2.30
2017-07-08T18:07:40.464Z,1.93
2017-07-08T18:10:09.889Z,1.80
2017-07-08T18:12:38.223Z,1.73
2017-07-08T18:15:06.573Z,2.60
2017-07-08T18:17:35.358Z,3.10
2017-07-08T18:20:03.768Z,2.43
2017-07-08T18:22:32.116Z,1.77
2017-07-08T18:25:01.136Z,1.80
2017-07-08T18:27:29.478Z,1.70
2017-07-08T18:29:57.820Z,2.00
2017-07-08T18:32:26.478Z,1.83
2017-07-08T18:34:54.803Z,2.40
2017-07-08T18:37:23.324Z,2.00
2017-07-08T18:39:52.158Z,1.77
2017-07-08T18:42:20.545Z,2.07
2017-07-08T18:44:49.016Z,1.77
2017-07-08T18:47:17.739Z,2.27
2017-07-08T18:49:46.214Z,1.73
2017-07-08T18:52:14.662Z,2.13
2017-07-08T18:54:45.237Z,2.10
2017-07-08T18:57:13.715Z,2.00
2017-07-08T18:59:42.128Z,1.70
2017-07-08T19:02:10.793Z,2.10
2017-07-08T19:04:39.184Z,1.80
2017-07-08T19:07:09.453Z,2.60
2017-07-08T19:09:38.101Z,3.70
2017-07-08T19:12:06.473Z,2.30
2017-07-08T19:14:34.847Z,2.20
2017-07-08T19:17:03.362Z,3.37
2017-07-08T19:19:31.741Z,2.33
2017-07-08T19:22:00.052Z,2.80
2017-07-08T19:24:30.316Z,1.93
2017-07-08T19:26:58.643Z,3.23
2017-07-08T19:29:26.992Z,2.43
2017-07-08T19:31:55.638Z,2.30
2017-07-08T19:34:24.017Z,2.40
2017-07-08T19:36:52.532Z,3.83
2017-07-08T19:39:21.017Z,2.83
2017-07-08T19:41:49.410Z,3.30
2017-07-08T19:44:17.780Z,2.40
2017-07-08T19:46:46.362Z,3.30
2017-07-08T19:49:14.822Z,3.30
2017-07-08T19:51:43.228Z,3.53
2017-07-08T19:54:12.109Z,3.10
2017-07-08T19:56:41.768Z,2.80
2017-07-08T19:59:11.901Z,2.87
2017-07-08T20:01:40.569Z,4.07
2017-07-08T20:04:08.901Z,3.70
2017-07-08T20:06:37.229Z,2.93
2017-07-08T20:09:08.171Z,4.60
2017-07-08T20:11:37.644Z,4.73
2017-07-08T20:14:06.005Z,3.20
2017-07-08T20:16:36.514Z,3.67
2017-07-08T20:19:04.890Z,2.87
2017-07-08T20:21:33.282Z,3.00
2017-07-08T20:24:01.886Z,2.77
2017-07-08T20:26:30.282Z,3.37
2017-07-08T20:28:58.749Z,3.67
2017-07-08T20:31:27.830Z,3.10
2017-07-08T20:33:56.209Z,4.10
2017-07-08T20:36:24.721Z,2.87
2017-07-08T20:38:53.715Z,2.97
2017-07-08T20:41:22.534Z,3.40
2017-07-08T20:43:51.072Z,3.33
2017-07-08T20:46:19.765Z,3.60
2017-07-08T20:48:48.234Z,2.87
2017-07-08T20:51:16.708Z,3.57
2017-07-08T20:53:45.499Z,3.27
2017-07-08T20:56:14.209Z,3.30
2017-07-08T20:58:42.691Z,3.23
2017-07-08T21:01:11.559Z,3.73
2017-07-08T21:03:40.832Z,3.40
2017-07-08T21:06:09.256Z,3.50
2017-07-08T21:08:37.604Z,3.57
2017-07-08T21:11:05.921Z,2.80
2017-07-08T21:13:34.224Z,3.17
2017-07-08T21:16:03.290Z,2.40
2017-07-08T21:18:31.626Z,2.30
2017-07-08T21:21:00.251Z,2.40
2017-07-08T21:23:28.702Z,2.70
2017-07-08T21:25:57.043Z,2.60
2017-07-08T21:28:25.547Z,2.23
2017-07-08T21:30:54.225Z,3.53
2017-07-08T21:33:22.588Z,2.63
2017-07-08T21:35:50.948Z,3.07
2017-07-08T21:38:20.730Z,2.30
2017-07-08T21:40:49.181Z,2.43
2017-07-08T21:43:17.783Z,2.50
2017-07-08T21:45:47.075Z,2.27
2017-07-08T21:48:15.686Z,2.00
2017-07-08T21:50:47.425Z,1.50
2017-07-08T21:53:16.661Z,2.27
2017-07-08T21:55:45.090Z,2.40
2017-07-08T21:58:13.531Z,2.50
2017-07-08T22:00:43.005Z,2.67
2017-07-08T22:03:12.395Z,1.80
2017-07-08T22:05:42.391Z,2.47
2017-07-08T22:08:10.981Z,2.20
2017-07-08T22:10:43.272Z,2.20
2017-07-08T22:13:12.355Z,2.10
2017-07-08T22:15:40.746Z,2.80
2017-07-08T22:18:09.132Z,2.37
2017-07-08T22:20:37.588Z,1.80
2017-07-08T22:23:05.961Z,3.03
2017-07-08T22:25:34.279Z,3.10
2017-07-08T22:28:02.915Z,2.30
2017-07-08T22:30:31.270Z,2.47
2017-07-08T22:32:59.630Z,2.90
2017-07-08T22:35:28.922Z,4.03
2017-07-08T22:37:58.171Z,3.30
2017-07-08T22:40:26.502Z,2.97
2017-07-08T22:42:55.049Z,3.27
2017-07-08T22:45:23.392Z,3.63
2017-07-08T22:47:51.797Z,4.60
2017-07-08T22:50:20.870Z,3.87
2017-07-08T22:52:49.421Z,4.10
2017-07-08T22:55:17.834Z,3.70
2017-07-08T22:57:47.097Z,3.92
2017-07-08T23:00:15.938Z,4.00
2017-07-08T23:02:44.401Z,3.28
2017-07-08T23:05:12.948Z,3.28
2017-07-08T23:07:41.324Z,3.37
2017-07-08T23:10:09.805Z,4.60
2017-07-08T23:12:38.441Z,3.53
2017-07-08T23:15:06.752Z,3.37
2017-07-08T23:17:35.085Z,3.60
2017-07-08T23:20:04.452Z,3.97
2017-07-08T23:22:33.745Z,3.87
2017-07-08T23:25:02.053Z,2.83
2017-07-08T23:27:30.654Z,3.70
2017-07-08T23:29:58.992Z,4.00
2017-07-08T23:32:27.333Z,3.70
2017-07-08T23:34:56.425Z,3.20
2017-07-08T23:37:24.757Z,3.17
2017-07-08T23:39:53.142Z,3.27
2017-07-08T23:42:21.868Z,3.37
2017-07-08T23:44:50.313Z,3.23
2017-07-08T23:47:18.794Z,3.33
2017-07-08T23:49:47.601Z,4.30
2017-07-08T23:52:15.970Z,2.97
2017-07-08T23:54:44.576Z,3.40
2017-07-08T23:57:13.162Z,3.30
2017-07-08T23:59:41.573Z,3.08
